sensor_id;sensor_type;location;lat;lon;timestamp;pressure;altitude;pressure_sealevel;temperature;humidity
76940;BME280;65885;55.848;35.916;2023-04-01T00:00:47;97903.59;;;3.95;66.41
76940;BME280;65885;55.848;35.916;2023-04-01T00:03:14;97909.09;;;3.87;66.58
76940;BME280;65885;55.848;35.916;2023-04-01T00:05:42;97896.44;;;3.80;67.03
76940;BME280;65885;55.848;35.916;2023-04-01T00:08:10;97902.69;;;3.74;67.32
76940;BME280;65885;55.848;35.916;2023-04-01T00:10:38;97896.06;;;3.67;67.56
76940;BME280;65885;55.848;35.916;2023-04-01T00:13:06;97895.38;;;3.62;67.31
76940;BME280;65885;55.848;35.916;2023-04-01T00:15:34;97887.88;;;3.56;67.80
76940;BME280;65885;55.848;35.916;2023-04-01T00:18:02;97895.81;;;3.51;67.82
76940;BME280;65885;55.848;35.916;2023-04-01T00:20:29;97888.81;;;3.53;68.01
76940;BME280;65885;55.848;35.916;2023-04-01T00:22:57;97885.91;;;3.61;68.47
76940;BME280;65885;55.848;35.916;2023-04-01T00:25:26;97894.06;;;3.74;68.56
76940;BME280;65885;55.848;35.916;2023-04-01T00:27:53;97891.03;;;3.84;68.50
76940;BME280;65885;55.848;35.916;2023-04-01T00:30:21;97892.38;;;3.95;67.85
76940;BME280;65885;55.848;35.916;2023-04-01T00:32:51;97887.59;;;4.06;67.85
76940;BME280;65885;55.848;35.916;2023-04-01T00:35:19;97891.53;;;4.16;68.02
76940;BME280;65885;55.848;35.916;2023-04-01T00:37:46;97887.72;;;4.25;67.56
76940;BME280;65885;55.848;35.916;2023-04-01T00:40:23;97891.66;;;4.33;67.19
76940;BME280;65885;55.848;35.916;2023-04-01T00:42:53;97891.53;;;4.36;67.33
76940;BME280;65885;55.848;35.916;2023-04-01T00:45:30;97893.44;;;4.33;67.31
76940;BME280;65885;55.848;35.916;2023-04-01T00:47:58;97886.72;;;4.27;67.10
76940;BME280;65885;55.848;35.916;2023-04-01T00:50:26;97896.72;;;4.16;67.41
76940;BME280;65885;55.848;35.916;2023-04-01T00:52:56;97903.16;;;4.06;67.69
76940;BME280;65885;55.848;35.916;2023-04-01T00:55:25;97905.28;;;3.96;68.02
76940;BME280;65885;55.848;35.916;2023-04-01T00:57:56;97905.66;;;3.87;67.79
76940;BME280;65885;55.848;35.916;2023-04-01T01:00:24;97906.88;;;3.78;68.21
76940;BME280;65885;55.848;35.916;2023-04-01T01:02:52;97905.44;;;3.70;67.59
76940;BME280;65885;55.848;35.916;2023-04-01T01:05:24;97896.28;;;3.61;68.08
76940;BME280;65885;55.848;35.916;2023-04-01T01:08:00;97902.59;;;3.54;68.13
76940;BME280;65885;55.848;35.916;2023-04-01T01:10:31;97901.13;;;3.48;68.09
76940;BME280;65885;55.848;35.916;2023-04-01T01:13:08;97901.22;;;3.45;68.24
76940;BME280;65885;55.848;35.916;2023-04-01T01:15:44;97895.03;;;3.49;68.36
76940;BME280;65885;55.848;35.916;2023-04-01T01:18:19;97899.78;;;3.60;68.86
76940;BME280;65885;55.848;35.916;2023-04-01T01:29:48;97893.47;;;4.11;68.07
76940;BME280;65885;55.848;35.916;2023-04-01T01:32:38;97892.25;;;4.20;67.25
76940;BME280;65885;55.848;35.916;2023-04-01T01:35:20;97899.69;;;4.27;67.50
76940;BME280;65885;55.848;35.916;2023-04-01T01:37:51;97897.13;;;4.27;67.26
76940;BME280;65885;55.848;35.916;2023-04-01T01:40:20;97900.72;;;4.23;66.96
76940;BME280;65885;55.848;35.916;2023-04-01T01:42:51;97901.94;;;4.14;66.61
76940;BME280;65885;55.848;35.916;2023-04-01T01:45:21;97909.34;;;4.03;66.91
76940;BME280;65885;55.848;35.916;2023-04-01T01:47:50;97913.25;;;3.92;66.65
76940;BME280;65885;55.848;35.916;2023-04-01T01:50:21;97911.09;;;3.81;67.21
76940;BME280;65885;55.848;35.916;2023-04-01T01:52:49;97911.47;;;3.70;67.14
76940;BME280;65885;55.848;35.916;2023-04-01T01:55:26;97905.75;;;3.62;67.27
76940;BME280;65885;55.848;35.916;2023-04-01T01:57:55;97903.50;;;3.53;67.91
76940;BME280;65885;55.848;35.916;2023-04-01T02:00:26;97902.97;;;3.45;68.01
76940;BME280;65885;55.848;35.916;2023-04-01T02:02:54;97892.88;;;3.37;68.04
76940;BME280;65885;55.848;35.916;2023-04-01T02:05:27;97890.59;;;3.29;67.85
76940;BME280;65885;55.848;35.916;2023-04-01T02:08:01;97896.81;;;3.24;67.92
76940;BME280;65885;55.848;35.916;2023-04-01T02:10:34;97896.19;;;3.19;67.96
76940;BME280;65885;55.848;35.916;2023-04-01T02:13:07;97889.34;;;3.16;68.27
76940;BME280;65885;55.848;35.916;2023-04-01T02:15:41;97902.97;;;3.21;68.49
76940;BME280;65885;55.848;35.916;2023-04-01T02:18:10;97898.34;;;3.29;68.69
76940;BME280;65885;55.848;35.916;2023-04-01T02:20:41;97901.50;;;3.38;68.45
76940;BME280;65885;55.848;35.916;2023-04-01T02:23:09;97900.38;;;3.45;68.02
76940;BME280;65885;55.848;35.916;2023-04-01T02:25:38;97898.34;;;3.53;68.29
76940;BME280;65885;55.848;35.916;2023-04-01T02:28:07;97904.91;;;3.61;68.10
76940;BME280;65885;55.848;35.916;2023-04-01T02:30:38;97906.44;;;3.67;67.74
76940;BME280;65885;55.848;35.916;2023-04-01T02:33:07;97907.88;;;3.74;67.56
76940;BME280;65885;55.848;35.916;2023-04-01T02:35:35;97912.06;;;3.78;67.30
76940;BME280;65885;55.848;35.916;2023-04-01T02:38:05;97912.94;;;3.77;66.83
76940;BME280;65885;55.848;35.916;2023-04-01T02:40:42;97912.28;;;3.72;66.86
76940;BME280;65885;55.848;35.916;2023-04-01T02:43:11;97913.53;;;3.62;66.25
76940;BME280;65885;55.848;35.916;2023-04-01T02:45:38;97915.75;;;3.49;66.45
76940;BME280;65885;55.848;35.916;2023-04-01T02:48:06;97911.09;;;3.36;66.61
76940;BME280;65885;55.848;35.916;2023-04-01T02:50:33;97908.94;;;3.23;67.53
76940;BME280;65885;55.848;35.916;2023-04-01T02:53:02;97909.34;;;3.13;67.52
76940;BME280;65885;55.848;35.916;2023-04-01T02:55:33;97912.38;;;3.00;67.41
76940;BME280;65885;55.848;35.916;2023-04-01T02:58:01;97910.06;;;2.93;67.54
76940;BME280;65885;55.848;35.916;2023-04-01T03:00:29;97908.69;;;2.83;68.11
76940;BME280;65885;55.848;35.916;2023-04-01T03:02:56;97909.88;;;2.74;68.00
76940;BME280;65885;55.848;35.916;2023-04-01T03:05:24;97913.63;;;2.65;68.42
76940;BME280;65885;55.848;35.916;2023-04-01T03:07:51;97915.63;;;2.57;68.16
76940;BME280;65885;55.848;35.916;2023-04-01T03:10:19;97922.56;;;2.55;68.76
76940;BME280;65885;55.848;35.916;2023-04-01T03:12:48;97919.00;;;2.59;69.00
76940;BME280;65885;55.848;35.916;2023-04-01T03:15:16;97932.53;;;2.67;68.62
76940;BME280;65885;55.848;35.916;2023-04-01T03:17:43;97928.84;;;2.74;68.59
76940;BME280;65885;55.848;35.916;2023-04-01T03:20:13;97924.28;;;2.81;67.67
76940;BME280;65885;55.848;35.916;2023-04-01T03:22:41;97928.34;;;2.88;67.61
76940;BME280;65885;55.848;35.916;2023-04-01T03:25:10;97929.00;;;2.95;67.18
76940;BME280;65885;55.848;35.916;2023-04-01T03:27:37;97926.28;;;2.98;67.27
76940;BME280;65885;55.848;35.916;2023-04-01T03:30:07;97927.00;;;3.01;67.08
76940;BME280;65885;55.848;35.916;2023-04-01T03:32:36;97930.41;;;3.03;66.47
76940;BME280;65885;55.848;35.916;2023-04-01T03:35:04;97936.50;;;3.01;66.10
76940;BME280;65885;55.848;35.916;2023-04-01T03:37:32;97943.63;;;2.96;65.93
76940;BME280;65885;55.848;35.916;2023-04-01T03:39:59;97939.69;;;2.84;66.18
76940;BME280;65885;55.848;35.916;2023-04-01T03:42:27;97944.44;;;2.71;66.14
76940;BME280;65885;55.848;35.916;2023-04-01T03:44:54;97941.50;;;2.57;66.39
76940;BME280;65885;55.848;35.916;2023-04-01T03:47:23;97945.41;;;2.44;66.54
76940;BME280;65885;55.848;35.916;2023-04-01T03:49:51;97949.28;;;2.31;67.26
76940;BME280;65885;55.848;35.916;2023-04-01T03:52:18;97953.09;;;2.19;67.74
76940;BME280;65885;55.848;35.916;2023-04-01T03:54:46;97940.56;;;2.07;67.32
76940;BME280;65885;55.848;35.916;2023-04-01T03:57:13;97953.78;;;1.98;68.30
76940;BME280;65885;55.848;35.916;2023-04-01T03:59:41;97949.78;;;1.87;67.83
76940;BME280;65885;55.848;35.916;2023-04-01T04:02:08;97950.00;;;1.80;68.28
76940;BME280;65885;55.848;35.916;2023-04-01T04:04:37;97948.50;;;1.73;68.07
76940;BME280;65885;55.848;35.916;2023-04-01T04:07:05;97950.25;;;1.72;69.13
76940;BME280;65885;55.848;35.916;2023-04-01T04:09:32;97945.78;;;1.77;69.02
76940;BME280;65885;55.848;35.916;2023-04-01T04:12:00;97959.31;;;1.85;68.78
76940;BME280;65885;55.848;35.916;2023-04-01T04:14:27;97954.75;;;1.93;69.11
76940;BME280;65885;55.848;35.916;2023-04-01T04:16:55;97958.78;;;2.02;68.19
76940;BME280;65885;55.848;35.916;2023-04-01T04:19:22;97968.81;;;2.13;68.59
76940;BME280;65885;55.848;35.916;2023-04-01T04:21:51;97969.41;;;2.21;68.26
76940;BME280;65885;55.848;35.916;2023-04-01T04:24:18;97972.59;;;2.29;67.88
76940;BME280;65885;55.848;35.916;2023-04-01T04:26:46;97970.66;;;2.36;67.80
76940;BME280;65885;55.848;35.916;2023-04-01T04:29:13;97973.94;;;2.41;67.86
76940;BME280;65885;55.848;35.916;2023-04-01T04:31:40;97977.41;;;2.40;67.58
76940;BME280;65885;55.848;35.916;2023-04-01T04:34:08;97981.03;;;2.34;67.70
76940;BME280;65885;55.848;35.916;2023-04-01T04:36:36;97979.66;;;2.24;67.88
76940;BME280;65885;55.848;35.916;2023-04-01T04:39:05;97984.28;;;2.14;67.99
76940;BME280;65885;55.848;35.916;2023-04-01T04:41:32;97989.75;;;2.05;68.27
76940;BME280;65885;55.848;35.916;2023-04-01T04:44:00;97992.59;;;1.96;68.07
76940;BME280;65885;55.848;35.916;2023-04-01T04:46:27;97988.59;;;1.86;68.57
76940;BME280;65885;55.848;35.916;2023-04-01T04:48:54;97992.25;;;1.79;68.55
76940;BME280;65885;55.848;35.916;2023-04-01T04:51:22;98001.06;;;1.72;69.05
76940;BME280;65885;55.848;35.916;2023-04-01T04:53:50;98002.16;;;1.64;69.47
76940;BME280;65885;55.848;35.916;2023-04-01T04:56:20;98010.06;;;1.60;69.20
76940;BME280;65885;55.848;35.916;2023-04-01T04:58:48;98013.53;;;1.57;69.83
76940;BME280;65885;55.848;35.916;2023-04-01T05:01:16;98017.75;;;1.61;69.61
76940;BME280;65885;55.848;35.916;2023-04-01T05:03:44;98018.31;;;1.71;70.02
76940;BME280;65885;55.848;35.916;2023-04-01T05:06:13;98023.16;;;1.83;69.80
76940;BME280;65885;55.848;35.916;2023-04-01T05:08:42;98026.19;;;1.96;69.99
76940;BME280;65885;55.848;35.916;2023-04-01T05:11:12;98026.69;;;2.09;69.21
76940;BME280;65885;55.848;35.916;2023-04-01T05:13:42;98028.06;;;2.20;69.78
76940;BME280;65885;55.848;35.916;2023-04-01T05:16:10;98031.97;;;2.32;69.03
76940;BME280;65885;55.848;35.916;2023-04-01T05:18:39;98024.75;;;2.43;69.65
76940;BME280;65885;55.848;35.916;2023-04-01T05:21:07;98020.91;;;2.55;69.36
76940;BME280;65885;55.848;35.916;2023-04-01T05:23:35;98016.31;;;2.63;69.50
76940;BME280;65885;55.848;35.916;2023-04-01T05:26:03;98010.09;;;2.69;69.06
76940;BME280;65885;55.848;35.916;2023-04-01T05:28:32;98012.75;;;2.67;69.26
76940;BME280;65885;55.848;35.916;2023-04-01T05:31:02;98013.66;;;2.66;69.89
76940;BME280;65885;55.848;35.916;2023-04-01T05:33:30;98013.72;;;2.65;70.04
76940;BME280;65885;55.848;35.916;2023-04-01T05:36:06;98011.13;;;2.65;70.36
76940;BME280;65885;55.848;35.916;2023-04-01T05:38:33;98004.19;;;2.65;70.90
76940;BME280;65885;55.848;35.916;2023-04-01T05:41:01;98011.91;;;2.67;70.95
76940;BME280;65885;55.848;35.916;2023-04-01T05:43:29;98019.50;;;2.71;70.75
76940;BME280;65885;55.848;35.916;2023-04-01T05:45:58;98008.16;;;2.75;71.47
76940;BME280;65885;55.848;35.916;2023-04-01T05:48:27;98014.06;;;2.81;71.71
76940;BME280;65885;55.848;35.916;2023-04-01T05:50:55;98011.28;;;2.85;71.67
76940;BME280;65885;55.848;35.916;2023-04-01T05:53:22;98012.00;;;2.90;71.71
76940;BME280;65885;55.848;35.916;2023-04-01T05:55:50;98016.06;;;2.97;72.25
76940;BME280;65885;55.848;35.916;2023-04-01T05:58:18;98019.09;;;3.10;72.74
76940;BME280;65885;55.848;35.916;2023-04-01T06:00:46;98015.06;;;3.26;72.36
76940;BME280;65885;55.848;35.916;2023-04-01T06:03:13;98015.88;;;3.52;72.36
76940;BME280;65885;55.848;35.916;2023-04-01T06:05:43;98024.25;;;3.82;72.50
76940;BME280;65885;55.848;35.916;2023-04-01T06:08:13;98026.38;;;4.17;72.40
76940;BME280;65885;55.848;35.916;2023-04-01T06:10:53;98030.66;;;4.62;72.86
76940;BME280;65885;55.848;35.916;2023-04-01T06:13:36;98028.53;;;5.13;72.60
76940;BME280;65885;55.848;35.916;2023-04-01T06:16:15;98021.50;;;5.55;72.82
76940;BME280;65885;55.848;35.916;2023-04-01T06:18:59;98030.38;;;5.91;72.41
76940;BME280;65885;55.848;35.916;2023-04-01T06:21:58;98028.03;;;6.22;72.40
76940;BME280;65885;55.848;35.916;2023-04-01T06:24:44;98028.72;;;6.45;72.83
76940;BME280;65885;55.848;35.916;2023-04-01T06:27:22;98034.03;;;6.60;71.99
76940;BME280;65885;55.848;35.916;2023-04-01T06:29:59;98032.72;;;6.69;71.47
76940;BME280;65885;55.848;35.916;2023-04-01T06:32:55;98029.91;;;6.74;70.65
76940;BME280;65885;55.848;35.916;2023-04-01T06:35:51;98030.75;;;6.74;69.75
76940;BME280;65885;55.848;35.916;2023-04-01T06:42:00;98027.59;;;6.67;68.34
76940;BME280;65885;55.848;35.916;2023-04-01T06:44:39;98029.50;;;6.64;67.93
76940;BME280;65885;55.848;35.916;2023-04-01T06:47:22;98033.72;;;6.66;68.19
76940;BME280;65885;55.848;35.916;2023-04-01T06:50:01;98030.19;;;6.67;68.58
76940;BME280;65885;55.848;35.916;2023-04-01T06:52:40;98031.72;;;6.72;68.56
76940;BME280;65885;55.848;35.916;2023-04-01T06:55:24;98038.50;;;6.76;68.37
76940;BME280;65885;55.848;35.916;2023-04-01T06:57:57;98032.28;;;6.78;68.56
76940;BME280;65885;55.848;35.916;2023-04-01T07:00:29;98034.66;;;6.83;68.48
76940;BME280;65885;55.848;35.916;2023-04-01T07:03:06;98038.75;;;6.88;68.74
76940;BME280;65885;55.848;35.916;2023-04-01T07:05:40;98036.66;;;6.95;67.49
76940;BME280;65885;55.848;35.916;2023-04-01T07:08:12;98033.66;;;7.03;67.43
76940;BME280;65885;55.848;35.916;2023-04-01T07:10:46;98040.03;;;7.14;66.05
76940;BME280;65885;55.848;35.916;2023-04-01T07:13:21;98034.06;;;7.30;67.35
76940;BME280;65885;55.848;35.916;2023-04-01T07:15:58;98037.72;;;7.43;67.43
76940;BME280;65885;55.848;35.916;2023-04-01T07:18:29;98031.09;;;7.53;67.29
76940;BME280;65885;55.848;35.916;2023-04-01T07:20:58;98038.53;;;7.61;66.55
76940;BME280;65885;55.848;35.916;2023-04-01T07:23:29;98035.00;;;7.62;66.09
76940;BME280;65885;55.848;35.916;2023-04-01T07:26:00;98034.84;;;7.65;65.82
76940;BME280;65885;55.848;35.916;2023-04-01T07:28:32;98035.69;;;7.65;64.92
76940;BME280;65885;55.848;35.916;2023-04-01T07:31:07;98033.00;;;7.67;64.83
76940;BME280;65885;55.848;35.916;2023-04-01T07:33:45;98036.13;;;7.73;65.59
76940;BME280;65885;55.848;35.916;2023-04-01T07:36:22;98036.38;;;7.85;66.04
76940;BME280;65885;55.848;35.916;2023-04-01T07:38:59;98045.09;;;8.01;65.73
76940;BME280;65885;55.848;35.916;2023-04-01T07:41:40;98030.22;;;8.19;65.18
76940;BME280;65885;55.848;35.916;2023-04-01T07:44:23;98043.13;;;8.38;64.67
76940;BME280;65885;55.848;35.916;2023-04-01T07:46:59;98039.84;;;8.50;63.30
76940;BME280;65885;55.848;35.916;2023-04-01T07:49:36;98046.06;;;8.63;63.29
76940;BME280;65885;55.848;35.916;2023-04-01T07:52:14;98045.28;;;8.77;63.42
76940;BME280;65885;55.848;35.916;2023-04-01T07:54:48;98040.19;;;8.89;63.14
76940;BME280;65885;55.848;35.916;2023-04-01T07:57:19;98038.22;;;9.09;63.40
76940;BME280;65885;55.848;35.916;2023-04-01T07:59:57;98041.25;;;9.31;63.53
76940;BME280;65885;55.848;35.916;2023-04-01T08:02:29;98034.66;;;9.54;62.85
76940;BME280;65885;55.848;35.916;2023-04-01T08:05:05;98046.72;;;9.85;63.05
76940;BME280;65885;55.848;35.916;2023-04-01T08:07:39;98043.06;;;10.16;63.15
76940;BME280;65885;55.848;35.916;2023-04-01T08:10:15;98053.97;;;10.51;63.41
76940;BME280;65885;55.848;35.916;2023-04-01T08:12:54;98044.03;;;10.83;61.32
76940;BME280;65885;55.848;35.916;2023-04-01T08:15:27;98049.38;;;11.22;62.28
76940;BME280;65885;55.848;35.916;2023-04-01T08:18:15;98040.09;;;11.68;63.60
76940;BME280;65885;55.848;35.916;2023-04-01T08:20:48;98040.31;;;12.04;62.18
76940;BME280;65885;55.848;35.916;2023-04-01T08:23:19;98035.72;;;12.31;59.18
76940;BME280;65885;55.848;35.916;2023-04-01T08:25:53;98044.16;;;12.60;59.18
76940;BME280;65885;55.848;35.916;2023-04-01T08:28:27;98046.69;;;12.86;58.13
76940;BME280;65885;55.848;35.916;2023-04-01T08:31:01;98038.91;;;13.08;57.71
76940;BME280;65885;55.848;35.916;2023-04-01T08:33:31;98041.34;;;13.22;55.13
76940;BME280;65885;55.848;35.916;2023-04-01T08:36:03;98030.16;;;13.43;56.43
76940;BME280;65885;55.848;35.916;2023-04-01T08:38:36;98034.75;;;13.63;56.13
76940;BME280;65885;55.848;35.916;2023-04-01T08:41:27;98035.13;;;13.81;54.95
76940;BME280;65885;55.848;35.916;2023-04-01T08:44:15;98039.81;;;14.11;57.56
76940;BME280;65885;55.848;35.916;2023-04-01T08:53:21;98040.97;;;14.74;51.01
76940;BME280;65885;55.848;35.916;2023-04-01T08:56:06;98046.81;;;14.89;50.45
76940;BME280;65885;55.848;35.916;2023-04-01T09:01:40;98046.03;;;15.30;52.67
76940;BME280;65885;55.848;35.916;2023-04-01T09:04:26;98036.44;;;15.50;52.49
76940;BME280;65885;55.848;35.916;2023-04-01T09:07:13;98042.00;;;15.68;51.47
76940;BME280;65885;55.848;35.916;2023-04-01T09:10:03;98042.13;;;15.87;52.39
76940;BME280;65885;55.848;35.916;2023-04-01T09:12:59;98046.63;;;16.06;50.77
76940;BME280;65885;55.848;35.916;2023-04-01T09:15:46;98045.16;;;16.23;50.36
76940;BME280;65885;55.848;35.916;2023-04-01T09:18:53;98049.56;;;16.43;51.51
76940;BME280;65885;55.848;35.916;2023-04-01T09:21:34;98045.59;;;16.68;52.39
76940;BME280;65885;55.848;35.916;2023-04-01T09:27:14;98064.78;;;17.10;50.18
76940;BME280;65885;55.848;35.916;2023-04-01T09:36:19;98057.22;;;17.73;50.83
76940;BME280;65885;55.848;35.916;2023-04-01T09:38:56;98061.13;;;17.79;48.61
76940;BME280;65885;55.848;35.916;2023-04-01T09:41:30;98063.34;;;17.64;44.52
76940;BME280;65885;55.848;35.916;2023-04-01T09:44:02;98065.03;;;17.56;45.87
76940;BME280;65885;55.848;35.916;2023-04-01T09:46:50;98058.91;;;17.36;43.07
76940;BME280;65885;55.848;35.916;2023-04-01T09:49:42;98067.00;;;17.05;41.95
76940;BME280;65885;55.848;35.916;2023-04-01T09:52:24;98062.22;;;16.80;43.64
76940;BME280;65885;55.848;35.916;2023-04-01T09:55:04;98061.06;;;16.63;45.56
76940;BME280;65885;55.848;35.916;2023-04-01T09:58:02;98061.00;;;16.53;45.58
76940;BME280;65885;55.848;35.916;2023-04-01T10:00:56;98055.16;;;16.40;43.42
76940;BME280;65885;55.848;35.916;2023-04-01T10:16:37;98069.03;;;16.32;43.52
76940;BME280;65885;55.848;35.916;2023-04-01T10:25:18;98069.81;;;15.93;42.60
76940;BME280;65885;55.848;35.916;2023-04-01T10:28:12;98072.09;;;15.76;41.85
76940;BME280;65885;55.848;35.916;2023-04-01T10:34:27;98076.81;;;15.20;43.20
76940;BME280;65885;55.848;35.916;2023-04-01T10:36:56;98080.59;;;14.95;43.70
76940;BME280;65885;55.848;35.916;2023-04-01T10:39:59;98084.50;;;14.68;44.87
76940;BME280;65885;55.848;35.916;2023-04-01T10:43:04;98085.69;;;14.42;45.78
76940;BME280;65885;55.848;35.916;2023-04-01T10:49:38;98089.91;;;14.00;44.74
76940;BME280;65885;55.848;35.916;2023-04-01T10:52:53;98087.97;;;13.79;43.62
76940;BME280;65885;55.848;35.916;2023-04-01T10:55:43;98096.78;;;13.56;44.30
76940;BME280;65885;55.848;35.916;2023-04-01T10:58:45;98100.78;;;13.38;45.16
76940;BME280;65885;55.848;35.916;2023-04-01T11:04:40;98104.91;;;13.05;45.32
76940;BME280;65885;55.848;35.916;2023-04-01T11:10:45;98107.28;;;12.60;45.95
76940;BME280;65885;55.848;35.916;2023-04-01T11:13:51;98106.91;;;12.41;46.71
76940;BME280;65885;55.848;35.916;2023-04-01T11:16:57;98102.94;;;12.22;47.50
76940;BME280;65885;55.848;35.916;2023-04-01T11:20:20;98099.69;;;12.06;48.38
76940;BME280;65885;55.848;35.916;2023-04-01T11:23:43;98112.94;;;11.92;48.71
76940;BME280;65885;55.848;35.916;2023-04-01T11:26:21;98113.75;;;11.80;50.42
76940;BME280;65885;55.848;35.916;2023-04-01T11:29:09;98110.69;;;11.73;51.80
76940;BME280;65885;55.848;35.916;2023-04-01T11:31:54;98112.06;;;11.66;53.01
76940;BME280;65885;55.848;35.916;2023-04-01T11:34:44;98104.47;;;11.61;53.78
76940;BME280;65885;55.848;35.916;2023-04-01T11:37:29;98108.34;;;11.56;52.93
76940;BME280;65885;55.848;35.916;2023-04-01T11:40:12;98116.44;;;11.53;53.32
76940;BME280;65885;55.848;35.916;2023-04-01T11:42:55;98115.88;;;11.48;53.10
76940;BME280;65885;55.848;35.916;2023-04-01T11:45:35;98113.69;;;11.42;52.52
76940;BME280;65885;55.848;35.916;2023-04-01T11:48:13;98123.66;;;11.36;53.19
76940;BME280;65885;55.848;35.916;2023-04-01T11:50:55;98124.16;;;11.29;52.56
76940;BME280;65885;55.848;35.916;2023-04-01T11:53:39;98123.50;;;11.25;53.96
76940;BME280;65885;55.848;35.916;2023-04-01T11:56:26;98130.75;;;11.22;54.48
76940;BME280;65885;55.848;35.916;2023-04-01T12:01:59;98124.84;;;11.18;54.71
76940;BME280;65885;55.848;35.916;2023-04-01T12:07:47;98130.47;;;11.26;54.09
76940;BME280;65885;55.848;35.916;2023-04-01T12:10:19;98124.03;;;11.30;54.03
76940;BME280;65885;55.848;35.916;2023-04-01T12:12:56;98130.28;;;11.42;54.08
76940;BME280;65885;55.848;35.916;2023-04-01T12:15:31;98130.50;;;11.52;53.44
76940;BME280;65885;55.848;35.916;2023-04-01T12:18:14;98125.38;;;11.63;52.21
76940;BME280;65885;55.848;35.916;2023-04-01T12:20:49;98127.41;;;11.72;51.98
76940;BME280;65885;55.848;35.916;2023-04-01T12:23:32;98126.13;;;11.78;50.68
76940;BME280;65885;55.848;35.916;2023-04-01T12:26:35;98134.00;;;11.78;51.19
76940;BME280;65885;55.848;35.916;2023-04-01T12:29:35;98132.31;;;11.77;50.71
76940;BME280;65885;55.848;35.916;2023-04-01T12:32:12;98142.09;;;11.75;51.17
76940;BME280;65885;55.848;35.916;2023-04-01T12:34:53;98147.56;;;11.72;51.41
76940;BME280;65885;55.848;35.916;2023-04-01T12:37:31;98141.56;;;11.70;51.02
76940;BME280;65885;55.848;35.916;2023-04-01T12:40:16;98149.00;;;11.63;49.73
76940;BME280;65885;55.848;35.916;2023-04-01T12:42:55;98148.66;;;11.55;49.56
76940;BME280;65885;55.848;35.916;2023-04-01T12:45:29;98152.88;;;11.45;50.05
76940;BME280;65885;55.848;35.916;2023-04-01T12:54:36;98168.53;;;11.19;50.01
76940;BME280;65885;55.848;35.916;2023-04-01T12:57:27;98164.91;;;11.07;50.27
76940;BME280;65885;55.848;35.916;2023-04-01T13:00:11;98167.91;;;11.01;52.38
76940;BME280;65885;55.848;35.916;2023-04-01T13:02:54;98170.63;;;11.00;52.47
76940;BME280;65885;55.848;35.916;2023-04-01T13:05:49;98163.81;;;10.97;52.18
76940;BME280;65885;55.848;35.916;2023-04-01T13:08:35;98177.78;;;10.98;51.46
76940;BME280;65885;55.848;35.916;2023-04-01T13:11:09;98197.16;;;10.95;51.51
76940;BME280;65885;55.848;35.916;2023-04-01T13:13:59;98191.38;;;10.90;51.62
76940;BME280;65885;55.848;35.916;2023-04-01T13:16:36;98203.19;;;10.83;51.86
76940;BME280;65885;55.848;35.916;2023-04-01T13:19:08;98209.09;;;10.72;52.06
76940;BME280;65885;55.848;35.916;2023-04-01T13:21:48;98217.06;;;10.56;52.25
76940;BME280;65885;55.848;35.916;2023-04-01T13:24:30;98230.16;;;10.42;52.55
76940;BME280;65885;55.848;35.916;2023-04-01T13:27:03;98227.34;;;10.31;53.11
76940;BME280;65885;55.848;35.916;2023-04-01T13:29:36;98228.38;;;10.28;53.61
76940;BME280;65885;55.848;35.916;2023-04-01T13:32:20;98231.38;;;10.22;54.69
76940;BME280;65885;55.848;35.916;2023-04-01T13:35:03;98232.34;;;10.20;55.60
76940;BME280;65885;55.848;35.916;2023-04-01T13:37:46;98241.97;;;10.19;56.82
76940;BME280;65885;55.848;35.916;2023-04-01T13:40:41;98250.78;;;10.18;57.17
76940;BME280;65885;55.848;35.916;2023-04-01T13:43:18;98252.34;;;10.07;57.49
76940;BME280;65885;55.848;35.916;2023-04-01T13:46:04;98256.44;;;9.96;58.12
76940;BME280;65885;55.848;35.916;2023-04-01T13:49:04;98255.53;;;9.82;58.66
76940;BME280;65885;55.848;35.916;2023-04-01T13:51:55;98248.41;;;9.69;59.06
76940;BME280;65885;55.848;35.916;2023-04-01T13:54:52;98253.31;;;9.60;59.86
76940;BME280;65885;55.848;35.916;2023-04-01T13:57:40;98258.22;;;9.50;60.27
76940;BME280;65885;55.848;35.916;2023-04-01T14:00:25;98261.25;;;9.42;60.88
76940;BME280;65885;55.848;35.916;2023-04-01T14:03:11;98256.34;;;9.36;60.85
76940;BME280;65885;55.848;35.916;2023-04-01T14:05:52;98260.25;;;9.29;61.55
76940;BME280;65885;55.848;35.916;2023-04-01T14:08:33;98262.44;;;9.21;61.73
76940;BME280;65885;55.848;35.916;2023-04-01T14:11:14;98266.31;;;9.14;62.30
76940;BME280;65885;55.848;35.916;2023-04-01T14:13:52;98265.91;;;9.06;62.41
76940;BME280;65885;55.848;35.916;2023-04-01T14:16:47;98261.88;;;9.00;62.14
76940;BME280;65885;55.848;35.916;2023-04-01T14:19:34;98262.09;;;8.96;62.93
76940;BME280;65885;55.848;35.916;2023-04-01T14:22:16;98261.34;;;8.94;63.11
76940;BME280;65885;55.848;35.916;2023-04-01T14:25:12;98258.81;;;8.92;63.24
76940;BME280;65885;55.848;35.916;2023-04-01T14:27:54;98263.34;;;8.88;63.49
76940;BME280;65885;55.848;35.916;2023-04-01T14:30:43;98265.22;;;8.86;63.61
76940;BME280;65885;55.848;35.916;2023-04-01T14:33:33;98260.91;;;8.85;63.83
76940;BME280;65885;55.848;35.916;2023-04-01T14:36:19;98269.00;;;8.81;64.18
76940;BME280;65885;55.848;35.916;2023-04-01T14:39:00;98266.47;;;8.79;64.04
76940;BME280;65885;55.848;35.916;2023-04-01T14:41:45;98275.06;;;8.81;63.84
76940;BME280;65885;55.848;35.916;2023-04-01T14:44:26;98274.50;;;8.92;64.83
76940;BME280;65885;55.848;35.916;2023-04-01T14:47:22;98270.13;;;9.08;65.10
76940;BME280;65885;55.848;35.916;2023-04-01T14:49:53;98278.84;;;9.25;65.16
76940;BME280;65885;55.848;35.916;2023-04-01T14:52:31;98274.44;;;9.41;64.61
76940;BME280;65885;55.848;35.916;2023-04-01T14:55:00;98281.34;;;9.58;64.37
76940;BME280;65885;55.848;35.916;2023-04-01T14:57:30;98284.22;;;9.69;64.00
76940;BME280;65885;55.848;35.916;2023-04-01T15:00:07;98284.88;;;9.72;63.41
76940;BME280;65885;55.848;35.916;2023-04-01T15:02:46;98298.25;;;9.68;63.11